createdAt,value
2018-09-26T00:00:47.198Z,90.47
2018-09-26T00:01:47.188Z,90.38
2018-09-26T00:02:47.176Z,90.85
2018-09-26T00:03:47.166Z,90.76
2018-09-26T00:04:47.155Z,90.85
2018-09-26T00:05:47.149Z,91.04
2018-09-26T00:06:47.134Z,90.95
2018-09-26T00:07:47.125Z,90.38
2018-09-26T00:08:47.113Z,90.76
2018-09-26T00:09:47.103Z,91.04
2018-09-26T00:10:47.091Z,90.57
2018-09-26T00:11:47.083Z,90.38
2018-09-26T00:12:47.071Z,90.57
2018-09-26T00:13:47.060Z,90.66
2018-09-26T00:14:47.049Z,90.38
2018-09-26T00:15:47.039Z,90.28
2018-09-26T00:16:47.029Z,90.47
2018-09-26T00:17:47.018Z,90.38
2018-09-26T00:18:47.007Z,90.38
2018-09-26T00:19:46.998Z,90.38
2018-09-26T00:20:46.986Z,90.19
2018-09-26T00:21:46.975Z,89.90
2018-09-26T00:22:46.965Z,90.85
2018-09-26T00:23:46.954Z,91.14
2018-09-26T00:24:46.944Z,90.38
2018-09-26T00:25:46.933Z,90.47
2018-09-26T00:26:46.921Z,90.66
2018-09-26T00:27:46.911Z,90.57
2018-09-26T00:28:46.901Z,90.47
2018-09-26T00:29:46.890Z,90.19
2018-09-26T00:30:46.879Z,90.28
2018-09-26T00:31:46.869Z,90.38
2018-09-26T00:32:46.859Z,90.95
2018-09-26T00:33:46.848Z,90.66
2018-09-26T00:34:46.837Z,90.57
2018-09-26T00:35:46.886Z,90.28
2018-09-26T00:36:46.816Z,90.76
2018-09-26T00:37:46.805Z,91.24
2018-09-26T00:38:46.794Z,91.14
2018-09-26T00:39:46.808Z,91.14
2018-09-26T00:40:46.772Z,90.38
2018-09-26T00:41:46.766Z,90.62
2018-09-26T00:42:46.751Z,90.76
2018-09-26T00:43:46.743Z,90.24
2018-09-26T00:44:46.730Z,90.47
2018-09-26T00:45:46.723Z,90.47
2018-09-26T00:46:46.709Z,91.24
2018-09-26T00:47:46.698Z,91.04
2018-09-26T00:48:46.690Z,91.14
2018-09-26T00:49:46.677Z,91.24
2018-09-26T00:50:46.665Z,91.24
2018-09-26T00:51:46.656Z,91.42
2018-09-26T00:52:46.645Z,91.56
2018-09-26T00:53:46.634Z,91.04
2018-09-26T00:54:46.622Z,91.28
2018-09-26T00:55:46.615Z,90.76
2018-09-26T00:56:46.602Z,91.24
2018-09-26T00:57:46.591Z,91.24
2018-09-26T00:58:46.830Z,90.90
2018-09-26T00:59:46.570Z,91.09
2018-09-26T01:00:46.559Z,90.95
2018-09-26T01:01:46.549Z,90.90
2018-09-26T01:02:46.538Z,91.28
2018-09-26T01:03:46.526Z,90.90
2018-09-26T01:04:46.515Z,91.00
2018-09-26T01:05:46.506Z,91.38
2018-09-26T01:06:46.494Z,91.28
2018-09-26T01:07:46.488Z,91.00
2018-09-26T01:08:46.474Z,91.56
2018-09-26T01:09:46.462Z,91.00
2018-09-26T01:10:46.451Z,91.00
2018-09-26T01:11:46.440Z,91.19
2018-09-26T01:12:46.430Z,91.28
2018-09-26T01:13:46.420Z,91.09
2018-09-26T01:14:46.408Z,91.09
2018-09-26T01:15:46.397Z,91.19
2018-09-26T01:16:46.388Z,91.19
2018-09-26T01:17:46.382Z,91.09
2018-09-26T01:18:46.365Z,91.75
2018-09-26T01:19:46.358Z,91.75
2018-09-26T01:20:46.594Z,91.85
2018-09-26T01:21:46.333Z,91.47
2018-09-26T01:22:46.321Z,91.75
2018-09-26T01:23:46.319Z,91.66
2018-09-26T01:24:46.300Z,92.33
2018-09-26T01:25:46.291Z,91.85
2018-09-26T01:26:46.278Z,91.75
2018-09-26T01:27:46.267Z,91.28
2018-09-26T01:28:46.262Z,91.28
2018-09-26T01:29:46.246Z,91.47
2018-09-26T01:30:46.234Z,91.38
2018-09-26T01:31:46.223Z,91.75
2018-09-26T01:32:46.217Z,91.85
2018-09-26T01:33:46.202Z,92.52
2018-09-26T01:34:46.191Z,92.14
2018-09-26T01:35:46.180Z,91.85
2018-09-26T01:36:46.172Z,91.94
2018-09-26T01:37:46.159Z,92.14
2018-09-26T01:38:46.146Z,92.14
2018-09-26T01:39:46.139Z,91.85
2018-09-26T01:40:46.125Z,91.85
2018-09-26T01:41:46.114Z,91.94
2018-09-26T01:42:46.103Z,92.42
2018-09-26T01:43:46.093Z,91.94
2018-09-26T01:44:46.081Z,91.94
2018-09-26T01:45:46.070Z,91.75
2018-09-26T01:46:46.060Z,92.04
2018-09-26T01:47:46.050Z,91.66
2018-09-26T01:48:46.036Z,91.75
2018-09-26T01:49:46.025Z,91.47
2018-09-26T01:50:46.013Z,91.75
2018-09-26T01:51:46.003Z,91.66
2018-09-26T01:52:45.991Z,92.52
2018-09-26T01:53:45.980Z,91.75
2018-09-26T01:54:45.969Z,91.75
2018-09-26T01:55:45.957Z,91.19
2018-09-26T01:56:45.946Z,91.09
2018-09-26T01:57:45.935Z,91.28
2018-09-26T01:58:45.924Z,91.38
2018-09-26T01:59:45.914Z,91.47
2018-09-26T02:00:45.901Z,91.38
2018-09-26T02:01:45.890Z,91.47
2018-09-26T02:02:45.879Z,91.38
2018-09-26T02:03:45.867Z,91.38
2018-09-26T02:04:45.856Z,91.47
2018-09-26T02:05:45.845Z,91.85
2018-09-26T02:06:45.833Z,92.42
2018-09-26T02:07:45.822Z,92.14
2018-09-26T02:08:45.811Z,92.14
2018-09-26T02:09:45.803Z,91.80
2018-09-26T02:10:45.788Z,91.99
2018-09-26T02:11:45.779Z,91.90
2018-09-26T02:12:45.766Z,91.85
2018-09-26T02:13:45.759Z,92.61
2018-09-26T02:14:45.744Z,92.14
2018-09-26T02:15:45.732Z,91.85
2018-09-26T02:16:45.721Z,92.14
2018-09-26T02:17:45.960Z,92.04
2018-09-26T02:18:45.698Z,91.94
2018-09-26T02:19:45.687Z,91.47
2018-09-26T02:20:45.676Z,91.85
2018-09-26T02:21:45.665Z,91.85
2018-09-26T02:22:45.904Z,92.14
2018-09-26T02:23:45.700Z,91.90
2018-09-26T02:24:45.635Z,91.94
2018-09-26T02:25:45.621Z,91.94
2018-09-26T02:26:45.609Z,91.90
2018-09-26T02:27:45.597Z,91.80
2018-09-26T02:28:45.588Z,92.18
2018-09-26T02:29:45.576Z,92.57
2018-09-26T02:30:45.567Z,92.18
2018-09-26T02:31:45.553Z,92.47
2018-09-26T02:32:45.542Z,92.38
2018-09-26T02:33:45.531Z,92.57
2018-09-26T02:34:45.519Z,92.57
2018-09-26T02:35:45.511Z,92.57
2018-09-26T02:36:45.499Z,92.57
2018-09-26T02:37:45.487Z,92.66
2018-09-26T02:38:45.475Z,92.47
2018-09-26T02:39:45.464Z,92.66
2018-09-26T02:40:45.452Z,92.38
2018-09-26T02:41:45.442Z,92.66
2018-09-26T02:42:45.430Z,92.57
2018-09-26T02:43:45.669Z,92.76
2018-09-26T02:44:45.409Z,92.66
2018-09-26T02:45:45.396Z,92.18
2018-09-26T02:46:45.387Z,92.47
2018-09-26T02:47:45.378Z,92.47
2018-09-26T02:48:45.363Z,92.47
2018-09-26T02:49:45.354Z,92.18
2018-09-26T02:50:45.340Z,92.28
2018-09-26T02:51:45.332Z,92.09
2018-09-26T02:52:45.322Z,92.09
2018-09-26T02:53:45.306Z,91.61
2018-09-26T02:54:45.294Z,91.52
2018-09-26T02:55:45.346Z,92.09
2018-09-26T02:56:45.273Z,92.09
2018-09-26T02:57:45.265Z,92.18
2018-09-26T02:58:45.250Z,92.09
2018-09-26T02:59:45.240Z,91.99
2018-09-26T03:00:45.227Z,91.99
2018-09-26T03:01:45.216Z,91.42
2018-09-26T03:02:45.204Z,91.71
2018-09-26T03:03:45.193Z,91.90
2018-09-26T03:04:45.181Z,92.09
2018-09-26T03:05:45.172Z,92.18
2018-09-26T03:06:45.158Z,91.80
2018-09-26T03:07:45.148Z,92.38
2018-09-26T03:08:45.137Z,92.47
2018-09-26T03:09:45.124Z,92.57
2018-09-26T03:10:45.172Z,92.47
2018-09-26T03:11:45.104Z,92.28
2018-09-26T03:12:45.091Z,92.18
2018-09-26T03:13:45.079Z,92.18
2018-09-26T03:14:45.068Z,92.47
2018-09-26T03:15:45.055Z,92.57
2018-09-26T03:16:45.044Z,92.38
2018-09-26T03:17:45.069Z,92.28
2018-09-26T03:18:45.021Z,92.57
2018-09-26T03:19:45.010Z,92.38
2018-09-26T03:20:44.999Z,93.13
2018-09-26T03:21:44.990Z,92.76
2018-09-26T03:22:44.975Z,92.94
2018-09-26T03:23:44.964Z,92.94
2018-09-26T03:24:44.952Z,92.57
2018-09-26T03:25:44.941Z,92.38
2018-09-26T03:26:44.928Z,92.47
2018-09-26T03:27:44.917Z,92.57
2018-09-26T03:28:44.906Z,92.47
2018-09-26T03:29:44.939Z,92.66
2018-09-26T03:30:44.882Z,92.57
2018-09-26T03:31:44.881Z,92.38
2018-09-26T03:32:44.864Z,92.18
2018-09-26T03:33:44.881Z,92.66
2018-09-26T03:34:44.835Z,92.28
2018-09-26T03:35:44.823Z,92.38
2018-09-26T03:36:44.813Z,92.18
2018-09-26T03:37:44.801Z,92.38
2018-09-26T03:38:44.789Z,92.38
2018-09-26T03:39:44.777Z,92.38
2018-09-26T03:40:44.766Z,92.38
2018-09-26T03:41:44.754Z,92.38
2018-09-26T03:42:44.743Z,92.38
2018-09-26T03:43:44.735Z,92.66
2018-09-26T03:44:44.721Z,92.57
2018-09-26T03:45:44.708Z,92.66
2018-09-26T03:46:44.700Z,92.57
2018-09-26T03:47:44.685Z,92.66
2018-09-26T03:48:44.673Z,92.66
2018-09-26T03:49:44.666Z,92.66
2018-09-26T03:50:44.649Z,92.47
2018-09-26T03:51:44.638Z,92.38
2018-09-26T03:52:44.627Z,92.18
2018-09-26T03:53:44.615Z,92.18
2018-09-26T03:54:44.603Z,92.38
2018-09-26T03:55:44.604Z,92.57
2018-09-26T03:56:44.581Z,92.38
2018-09-26T03:57:44.568Z,92.18
2018-09-26T03:58:44.557Z,91.90
2018-09-26T03:59:44.545Z,91.42
2018-09-26T04:00:44.534Z,91.90
2018-09-26T04:01:44.524Z,91.90
2018-09-26T04:02:44.510Z,92.09
2018-09-26T04:03:44.503Z,92.09
2018-09-26T04:04:44.492Z,92.09
2018-09-26T04:05:44.476Z,91.99
2018-09-26T04:06:44.464Z,92.09
2018-09-26T04:07:44.455Z,92.28
2018-09-26T04:08:44.442Z,92.38
2018-09-26T04:09:44.430Z,92.09
2018-09-26T04:10:44.417Z,92.28
2018-09-26T04:11:44.406Z,92.18
2018-09-26T04:12:44.490Z,92.38
2018-09-26T04:13:44.384Z,92.57
2018-09-26T04:14:44.373Z,92.47
2018-09-26T04:15:44.408Z,92.66
2018-09-26T04:16:44.348Z,92.57
2018-09-26T04:17:44.341Z,92.66
2018-09-26T04:18:44.325Z,92.47
2018-09-26T04:19:44.313Z,92.76
2018-09-26T04:20:44.302Z,92.47
2018-09-26T04:21:44.291Z,92.94
2018-09-26T04:22:44.279Z,92.76
2018-09-26T04:23:44.269Z,93.13
2018-09-26T04:24:44.256Z,92.76
2018-09-26T04:25:44.246Z,93.23
2018-09-26T04:26:44.408Z,92.85
2018-09-26T04:27:44.338Z,92.76
2018-09-26T04:28:44.210Z,93.32
2018-09-26T04:29:44.200Z,92.85
2018-09-26T04:30:44.187Z,92.76
2018-09-26T04:31:44.177Z,93.70
2018-09-26T04:32:44.255Z,93.51
2018-09-26T04:33:44.345Z,93.70
2018-09-26T04:34:44.144Z,93.70
2018-09-26T04:35:44.131Z,93.41
2018-09-26T04:36:44.122Z,93.41
2018-09-26T04:37:44.110Z,93.41
2018-09-26T04:38:44.242Z,93.32
2018-09-26T04:39:44.089Z,93.41
2018-09-26T04:40:44.074Z,93.23
2018-09-26T04:41:44.063Z,93.99
2018-09-26T04:42:44.052Z,93.23
2018-09-26T04:43:44.040Z,93.70
2018-09-26T04:44:44.028Z,93.70
2018-09-26T04:45:44.019Z,93.41
2018-09-26T04:46:44.006Z,93.80
2018-09-26T04:47:43.994Z,93.51
2018-09-26T04:48:43.982Z,93.51
2018-09-26T04:49:43.971Z,93.41
2018-09-26T04:50:43.972Z,93.70
2018-09-26T04:51:43.947Z,93.61
2018-09-26T04:52:43.936Z,92.94
2018-09-26T04:53:43.928Z,93.13
2018-09-26T04:54:43.912Z,93.04
2018-09-26T04:55:43.901Z,93.04
2018-09-26T04:56:43.889Z,93.13
2018-09-26T04:57:43.943Z,93.04
2018-09-26T04:58:43.865Z,92.94
2018-09-26T04:59:43.856Z,92.94
2018-09-26T05:00:43.852Z,92.94
2018-09-26T05:01:43.832Z,92.85
2018-09-26T05:02:43.820Z,92.57
2018-09-26T05:03:43.816Z,92.38
2018-09-26T05:04:43.801Z,92.66
2018-09-26T05:05:43.786Z,93.04
2018-09-26T05:06:43.774Z,92.94
2018-09-26T05:07:43.762Z,92.94
2018-09-26T05:08:43.751Z,93.23
2018-09-26T05:09:43.741Z,92.94
2018-09-26T05:10:43.727Z,92.94
2018-09-26T05:11:43.718Z,93.04
2018-09-26T05:12:43.705Z,92.94
2018-09-26T05:13:43.694Z,92.94
2018-09-26T05:14:43.750Z,92.94
2018-09-26T05:15:43.670Z,92.66
2018-09-26T05:16:43.662Z,92.94
2018-09-26T05:17:43.647Z,92.94
2018-09-26T05:18:43.635Z,92.94
2018-09-26T05:19:43.826Z,93.04
2018-09-26T05:20:43.613Z,93.32
2018-09-26T05:21:43.602Z,93.04
2018-09-26T05:22:43.610Z,92.85
2018-09-26T05:23:43.580Z,93.23
2018-09-26T05:24:43.571Z,93.04
2018-09-26T05:25:43.557Z,93.23
2018-09-26T05:26:43.543Z,92.94
2018-09-26T05:27:43.535Z,93.23
2018-09-26T05:28:43.525Z,92.94
2018-09-26T05:29:43.509Z,92.94
2018-09-26T05:30:43.499Z,92.94
2018-09-26T05:31:43.485Z,93.04
2018-09-26T05:32:43.474Z,92.38
2018-09-26T05:33:43.470Z,93.04
2018-09-26T05:34:43.452Z,93.04
2018-09-26T05:35:43.439Z,92.47
2018-09-26T05:36:43.432Z,92.57
2018-09-26T05:37:43.417Z,92.28
2018-09-26T05:38:43.608Z,92.57
2018-09-26T05:39:43.396Z,92.09
2018-09-26T05:40:43.383Z,91.80
2018-09-26T05:41:43.484Z,92.09
2018-09-26T05:42:43.358Z,91.80
2018-09-26T05:43:43.346Z,92.09
2018-09-26T05:44:43.336Z,91.90
2018-09-26T05:45:43.530Z,91.90
2018-09-26T05:46:43.311Z,91.99
2018-09-26T05:47:43.300Z,92.09
2018-09-26T05:48:43.289Z,91.71
2018-09-26T05:49:43.277Z,91.71
2018-09-26T05:50:43.265Z,91.71
2018-09-26T05:51:43.257Z,91.42
2018-09-26T05:52:43.241Z,91.42
2018-09-26T05:53:43.230Z,91.05
2018-09-26T05:54:43.220Z,90.95
2018-09-26T05:55:43.205Z,91.05
2018-09-26T05:56:43.194Z,91.14
2018-09-26T05:57:43.182Z,91.09
2018-09-26T05:58:43.171Z,90.90
2018-09-26T05:59:43.166Z,91.09
2018-09-26T06:00:43.153Z,90.24
2018-09-26T06:01:43.138Z,90.62
2018-09-26T06:02:43.124Z,90.71
2018-09-26T06:03:43.115Z,90.24
2018-09-26T06:04:43.104Z,90.33
2018-09-26T06:05:43.094Z,90.81
2018-09-26T06:06:43.079Z,90.81
2018-09-26T06:07:43.069Z,90.52
2018-09-26T06:08:43.059Z,91.00
2018-09-26T06:09:43.043Z,90.71
2018-09-26T06:10:43.032Z,90.05
2018-09-26T06:11:43.020Z,89.95
2018-09-26T06:12:43.088Z,90.90
2018-09-26T06:13:43.000Z,90.52
2018-09-26T06:14:42.990Z,90.62
2018-09-26T06:15:42.984Z,90.33
2018-09-26T06:16:42.964Z,90.33
2018-09-26T06:17:42.955Z,90.62
2018-09-26T06:18:42.944Z,91.00
2018-09-26T06:19:42.930Z,90.24
2018-09-26T06:20:42.922Z,90.71
2018-09-26T06:21:42.911Z,90.81
2018-09-26T06:22:43.098Z,90.71
2018-09-26T06:23:42.885Z,90.33
2018-09-26T06:24:42.942Z,90.71
2018-09-26T06:25:42.872Z,90.14
2018-09-26T06:26:42.852Z,89.95
2018-09-26T06:27:42.842Z,90.19
2018-09-26T06:28:42.830Z,90.19
2018-09-26T06:29:42.820Z,89.90
2018-09-26T06:30:43.016Z,89.90
2018-09-26T06:31:42.798Z,89.81
2018-09-26T06:32:42.790Z,89.43
2018-09-26T06:33:42.781Z,89.53
2018-09-26T06:34:42.770Z,90.09
2018-09-26T06:35:42.762Z,89.33
2018-09-26T06:36:42.744Z,88.86
2018-09-26T06:37:42.734Z,88.95
2018-09-26T06:38:42.723Z,89.53
2018-09-26T06:39:42.714Z,88.67
2018-09-26T06:40:42.703Z,88.39
2018-09-26T06:41:42.692Z,88.48
2018-09-26T06:42:42.682Z,87.91
2018-09-26T06:43:42.670Z,88.29
2018-09-26T06:44:42.664Z,87.91
2018-09-26T06:45:42.650Z,88.05
2018-09-26T06:46:42.639Z,87.48
2018-09-26T06:47:42.629Z,87.38
2018-09-26T06:48:42.619Z,87.19
2018-09-26T06:49:42.609Z,87.38
2018-09-26T06:50:42.598Z,86.72
2018-09-26T06:51:42.593Z,87.38
2018-09-26T06:52:42.578Z,86.82
2018-09-26T06:53:42.569Z,87.19
2018-09-26T06:54:42.561Z,86.82
2018-09-26T06:55:42.547Z,86.82
2018-09-26T06:56:42.540Z,86.91
2018-09-26T06:57:42.528Z,86.53
2018-09-26T06:58:42.517Z,86.82
2018-09-26T06:59:42.506Z,87.01
2018-09-26T07:00:42.497Z,87.10
2018-09-26T07:01:42.489Z,87.48
2018-09-26T07:02:42.478Z,88.15
2018-09-26T07:03:42.468Z,87.90
2018-09-26T07:04:42.460Z,88.19
2018-09-26T07:05:42.449Z,88.57
2018-09-26T07:06:42.841Z,87.81
2018-09-26T07:07:42.427Z,87.62
2018-09-26T07:08:42.417Z,87.62
2018-09-26T07:09:42.408Z,87.43
2018-09-26T07:10:42.400Z,86.86
2018-09-26T07:11:42.389Z,86.86
2018-09-26T07:12:42.379Z,86.00
2018-09-26T07:13:42.370Z,86.00
2018-09-26T07:14:42.363Z,86.47
2018-09-26T07:15:42.349Z,86.95
2018-09-26T07:16:42.340Z,86.29
2018-09-26T07:17:42.585Z,87.14
2018-09-26T07:18:42.525Z,86.47
2018-09-26T07:19:42.316Z,86.86
2018-09-26T07:20:42.301Z,87.14
2018-09-26T07:21:42.292Z,87.47
2018-09-26T07:22:42.284Z,86.05
2018-09-26T07:23:42.273Z,85.76
2018-09-26T07:24:42.270Z,85.95
2018-09-26T07:25:42.258Z,85.57
2018-09-26T07:26:42.250Z,85.86
2018-09-26T07:27:42.239Z,86.14
2018-09-26T07:28:42.229Z,85.61
2018-09-26T07:29:42.224Z,85.24
2018-09-26T07:30:42.210Z,84.85
2018-09-26T07:31:42.206Z,84.19
2018-09-26T07:32:42.196Z,84.47
2018-09-26T07:33:42.189Z,83.90
2018-09-26T07:34:42.175Z,83.71
2018-09-26T07:35:42.169Z,83.85
2018-09-26T07:36:42.160Z,84.70
2018-09-26T07:37:42.155Z,84.52
2018-09-26T07:38:42.142Z,84.33
2018-09-26T07:39:42.139Z,83.37
2018-09-26T07:40:42.127Z,82.99
2018-09-26T07:41:42.120Z,84.46
2018-09-26T07:42:42.112Z,82.65
2018-09-26T07:43:42.110Z,82.84
2018-09-26T07:44:42.101Z,83.61
2018-09-26T07:45:42.159Z,81.07
2018-09-26T07:46:42.086Z,81.74
2018-09-26T07:47:42.078Z,82.69
2018-09-26T07:48:42.071Z,81.40
2018-09-26T07:49:42.065Z,81.68
2018-09-26T07:50:42.062Z,81.40
2018-09-26T07:51:42.057Z,80.77
2018-09-26T07:52:42.047Z,80.68
2018-09-26T07:53:42.245Z,81.73
2018-09-26T07:54:42.045Z,80.87
2018-09-26T07:55:42.032Z,80.39
2018-09-26T07:56:42.031Z,77.72
2018-09-26T07:57:42.024Z,77.15
2018-09-26T07:58:42.223Z,74.04
2018-09-26T07:59:42.013Z,74.01
2018-09-26T08:00:42.013Z,76.48
2018-09-26T08:01:42.005Z,76.71
2018-09-26T08:02:41.999Z,78.05
2018-09-26T08:03:41.999Z,78.62
2018-09-26T08:04:41.996Z,77.76
2018-09-26T08:05:41.999Z,79.00
2018-09-26T08:06:41.982Z,79.19
2018-09-26T08:07:42.228Z,76.71
2018-09-26T08:08:41.976Z,74.80
2018-09-26T08:09:41.969Z,78.14
2018-09-26T08:10:41.965Z,79.38
2018-09-26T08:11:41.973Z,79.00
2018-09-26T08:12:41.956Z,79.38
2018-09-26T08:13:41.952Z,79.38
2018-09-26T08:14:41.949Z,80.53
2018-09-26T08:15:41.947Z,80.33
2018-09-26T08:16:41.940Z,80.53
2018-09-26T08:17:41.935Z,80.81
2018-09-26T08:18:41.939Z,80.24
2018-09-26T08:19:41.927Z,79.52
2018-09-26T08:20:41.923Z,79.23
2018-09-26T08:21:41.919Z,76.65
2018-09-26T08:22:41.921Z,78.28
2018-09-26T08:23:41.948Z,79.17
2018-09-26T08:24:42.111Z,75.16
2018-09-26T08:25:42.117Z,76.98
2018-09-26T08:26:41.905Z,77.45
2018-09-26T08:27:41.904Z,76.54
2018-09-26T08:28:41.897Z,77.59
2018-09-26T08:29:41.927Z,76.64
2018-09-26T08:30:41.893Z,76.25
2018-09-26T08:31:41.890Z,74.28
2018-09-26T08:32:41.889Z,71.32
2018-09-26T08:33:41.889Z,72.75
2018-09-26T08:34:41.884Z,72.94
2018-09-26T08:35:41.889Z,68.84
2018-09-26T08:36:41.883Z,67.78
2018-09-26T08:37:41.880Z,68.93
2018-09-26T08:38:41.877Z,66.00
2018-09-26T08:39:41.878Z,66.09
2018-09-26T08:40:41.879Z,65.90
2018-09-26T08:41:41.876Z,64.28
2018-09-26T08:42:41.874Z,65.68
2018-09-26T08:43:41.887Z,65.39
2018-09-26T08:44:41.872Z,67.88
2018-09-26T08:45:41.873Z,65.61
2018-09-26T08:46:41.869Z,66.28
2018-09-26T08:47:41.870Z,64.75
2018-09-26T08:48:41.869Z,68.13
2018-09-26T08:49:41.870Z,68.42
2018-09-26T08:50:41.866Z,68.80
2018-09-26T08:51:41.866Z,68.52
2018-09-26T08:52:41.868Z,65.45
2018-09-26T08:53:41.900Z,63.45
2018-09-26T08:54:41.866Z,63.00
2018-09-26T08:55:41.868Z,64.25
2018-09-26T08:56:41.867Z,64.76
2018-09-26T08:57:41.875Z,63.42
2018-09-26T08:58:41.871Z,60.25
2018-09-26T08:59:41.954Z,58.62
2018-09-26T09:00:41.878Z,59.23
2018-09-26T09:01:41.891Z,64.50
2018-09-26T09:02:41.879Z,63.29
2018-09-26T09:03:41.881Z,61.37
2018-09-26T09:04:41.882Z,60.25
2018-09-26T09:05:41.886Z,60.92
2018-09-26T09:06:41.889Z,60.15
2018-09-26T09:07:41.896Z,58.14
2018-09-26T09:08:41.896Z,59.12
2018-09-26T09:09:41.906Z,61.05
2018-09-26T09:10:41.907Z,60.08
2018-09-26T09:11:42.195Z,62.58
2018-09-26T09:12:41.913Z,64.79
2018-09-26T09:13:41.918Z,62.68
2018-09-26T09:14:42.018Z,60.38
2018-09-26T09:15:41.927Z,57.95
2018-09-26T09:16:41.933Z,56.70
2018-09-26T09:17:41.956Z,57.01
2018-09-26T09:18:41.945Z,58.07
2018-09-26T09:19:41.949Z,54.90
2018-09-26T09:20:41.951Z,53.49
2018-09-26T09:21:41.961Z,54.74
2018-09-26T09:22:41.963Z,53.78
2018-09-26T09:23:41.972Z,51.09
2018-09-26T09:24:41.973Z,50.99
2018-09-26T09:25:41.980Z,55.51
2018-09-26T09:26:41.985Z,52.05
2018-09-26T09:27:42.123Z,56.30
2018-09-26T09:28:41.998Z,53.70
2018-09-26T09:29:42.008Z,53.03
2018-09-26T09:30:42.010Z,56.98
2018-09-26T09:31:42.019Z,52.10
2018-09-26T09:32:42.025Z,50.37
2018-09-26T09:33:42.033Z,46.72
2018-09-26T09:34:42.037Z,49.51
2018-09-26T09:35:42.044Z,48.64
2018-09-26T09:36:42.145Z,49.72
2018-09-26T09:37:42.062Z,53.96
2018-09-26T09:38:42.068Z,53.76
2018-09-26T09:39:42.074Z,52.99
2018-09-26T09:40:42.086Z,54.82
2018-09-26T09:41:42.093Z,56.74
2018-09-26T09:42:42.097Z,56.48
2018-09-26T09:43:42.107Z,48.79
2018-09-26T09:44:42.116Z,48.90
2018-09-26T09:45:42.122Z,48.71
2018-09-26T09:46:42.127Z,46.57
2018-09-26T09:47:42.135Z,51.12
2018-09-26T09:48:42.145Z,48.90
2018-09-26T09:49:42.153Z,51.70
2018-09-26T09:50:42.160Z,49.79
2018-09-26T09:51:42.534Z,46.40
2018-09-26T09:52:42.179Z,46.78
2018-09-26T09:53:42.189Z,41.20
2018-09-26T09:54:42.198Z,37.64
2018-09-26T09:55:42.204Z,39.26
2018-09-26T09:56:42.213Z,39.09
2018-09-26T09:57:42.223Z,40.14
2018-09-26T09:58:42.232Z,40.64
2018-09-26T09:59:42.242Z,40.95
2018-09-26T10:00:42.249Z,48.28
2018-09-26T10:01:42.259Z,43.27
2018-09-26T10:02:42.350Z,45.77
2018-09-26T10:03:42.289Z,48.28
2018-09-26T10:04:42.293Z,44.21
2018-09-26T10:05:42.298Z,40.72
2018-09-26T10:06:42.563Z,39.59
2018-09-26T10:07:42.320Z,43.34
2018-09-26T10:08:42.380Z,43.34
2018-09-26T10:09:42.338Z,41.30
2018-09-26T10:10:42.349Z,43.92
2018-09-26T10:11:42.355Z,41.68
2018-09-26T10:12:42.365Z,45.05
2018-09-26T10:13:42.374Z,50.37
2018-09-26T10:14:42.384Z,44.09
2018-09-26T10:15:42.395Z,39.09
2018-09-26T10:16:42.402Z,42.74
2018-09-26T10:17:42.521Z,38.89
2018-09-26T10:18:42.419Z,38.60
2018-09-26T10:19:42.428Z,38.89
2018-09-26T10:20:42.438Z,44.48
2018-09-26T10:21:42.448Z,47.65
2018-09-26T10:22:42.455Z,49.19
2018-09-26T10:23:42.465Z,45.73
2018-09-26T10:24:42.475Z,48.71
2018-09-26T10:25:42.481Z,46.98
2018-09-26T10:26:42.492Z,43.24
2018-09-26T10:27:42.499Z,45.29
2018-09-26T10:28:42.505Z,42.30
2018-09-26T10:29:42.514Z,40.37
2018-09-26T10:30:42.524Z,35.10
2018-09-26T10:31:42.531Z,36.54
2018-09-26T10:32:42.540Z,37.10
2018-09-26T10:33:42.552Z,41.72
2018-09-26T10:34:42.570Z,41.46
2018-09-26T10:35:42.570Z,39.43
2018-09-26T10:36:42.575Z,43.10
2018-09-26T10:37:42.587Z,39.14
2018-09-26T10:38:42.593Z,41.27
2018-09-26T10:39:42.602Z,42.13
2018-09-26T10:40:42.614Z,36.81
2018-09-26T10:41:42.620Z,34.96
2018-09-26T10:42:42.628Z,36.41
2018-09-26T10:43:42.638Z,36.19
2018-09-26T10:44:42.646Z,36.49
2018-09-26T10:45:42.655Z,36.77
2018-09-26T10:46:42.703Z,38.79
2018-09-26T10:47:42.671Z,38.81
2018-09-26T10:48:42.683Z,34.86
2018-09-26T10:49:42.687Z,34.66
2018-09-26T10:50:42.695Z,39.11
2018-09-26T10:51:42.703Z,33.81
2018-09-26T10:52:42.711Z,35.93
2018-09-26T10:53:42.720Z,42.47
2018-09-26T10:54:42.729Z,38.72
2018-09-26T10:55:42.742Z,40.57
2018-09-26T10:56:42.782Z,42.21
2018-09-26T10:57:42.752Z,38.85
2018-09-26T10:58:42.759Z,35.17
2018-09-26T10:59:42.768Z,36.44
2018-09-26T11:00:42.788Z,40.20
2018-09-26T11:01:42.785Z,40.30
2018-09-26T11:02:42.795Z,37.13
2018-09-26T11:03:42.802Z,37.45
2018-09-26T11:04:42.811Z,38.02
2018-09-26T11:05:42.823Z,37.73
2018-09-26T11:06:42.829Z,33.78
2018-09-26T11:07:42.841Z,35.82
2018-09-26T11:08:42.846Z,36.29
2018-09-26T11:09:42.854Z,38.70
2018-09-26T11:10:42.868Z,36.00
2018-09-26T11:11:42.872Z,35.22
2018-09-26T11:12:42.908Z,36.57
2018-09-26T11:13:42.891Z,35.02
2018-09-26T11:14:42.901Z,36.27
2018-09-26T11:15:42.911Z,35.52
2018-09-26T11:16:42.921Z,34.55
2018-09-26T11:17:42.925Z,33.10
2018-09-26T11:18:42.960Z,29.71
2018-09-26T11:19:42.942Z,33.95
2018-09-26T11:20:42.955Z,37.25
2018-09-26T11:21:42.967Z,32.91
2018-09-26T11:22:42.967Z,34.47
2018-09-26T11:23:42.978Z,37.95
2018-09-26T11:24:43.188Z,34.87
2018-09-26T11:25:42.995Z,33.80
2018-09-26T11:26:43.074Z,36.80
2018-09-26T11:27:43.014Z,31.88
2018-09-26T11:28:43.024Z,31.12
2018-09-26T11:29:43.030Z,36.72
2018-09-26T11:30:43.038Z,36.72
2018-09-26T11:31:43.048Z,36.82
2018-09-26T11:32:43.063Z,34.02
2018-09-26T11:33:43.175Z,35.00
2018-09-26T11:34:43.073Z,32.67
2018-09-26T11:35:43.083Z,37.21
2018-09-26T11:36:43.093Z,34.04
2018-09-26T11:37:43.105Z,30.35
2018-09-26T11:38:43.109Z,30.90
2018-09-26T11:39:43.119Z,34.26
2018-09-26T11:40:43.130Z,32.81
2018-09-26T11:41:43.136Z,30.01
2018-09-26T11:42:43.143Z,31.46
2018-09-26T11:43:43.152Z,33.89
2018-09-26T11:44:43.186Z,30.80
2018-09-26T11:45:43.173Z,33.52
2018-09-26T11:46:43.176Z,31.85
2018-09-26T11:47:43.186Z,30.69
2018-09-26T11:48:43.194Z,33.68
2018-09-26T11:49:43.202Z,31.65
2018-09-26T11:50:43.211Z,32.99
2018-09-26T11:51:43.218Z,33.66
2018-09-26T11:52:43.228Z,32.03
2018-09-26T11:53:43.235Z,30.59
2018-09-26T11:54:43.239Z,31.07
2018-09-26T11:55:43.249Z,30.03
2018-09-26T11:56:43.454Z,32.06
2018-09-26T11:57:43.261Z,31.18
2018-09-26T11:58:43.265Z,31.27
2018-09-26T11:59:43.272Z,32.73
2018-09-26T12:00:43.279Z,31.48
2018-09-26T12:01:43.289Z,33.20
2018-09-26T12:02:43.345Z,31.46
2018-09-26T12:03:43.298Z,29.82
2018-09-26T12:04:43.304Z,31.65
2018-09-26T12:05:43.312Z,31.86
2018-09-26T12:06:43.316Z,31.20
2018-09-26T12:07:43.323Z,32.75
2018-09-26T12:08:43.331Z,33.05
2018-09-26T12:09:43.336Z,31.71
2018-09-26T12:10:43.338Z,30.57
2018-09-26T12:11:43.346Z,28.91
2018-09-26T12:12:43.351Z,28.91
2018-09-26T12:13:43.371Z,29.78
2018-09-26T12:14:43.364Z,30.17
2018-09-26T12:15:43.366Z,28.89
2018-09-26T12:16:43.376Z,32.47
2018-09-26T12:17:43.378Z,33.54
2018-09-26T12:18:43.382Z,34.71
2018-09-26T12:19:43.390Z,35.70
2018-09-26T12:20:43.396Z,29.22
2018-09-26T12:21:43.450Z,26.78
2018-09-26T12:22:43.510Z,29.97
2018-09-26T12:23:43.408Z,29.90
2018-09-26T12:24:43.417Z,26.89
2018-09-26T12:25:43.418Z,27.17
2018-09-26T12:26:43.427Z,28.41
2018-09-26T12:27:43.505Z,28.88
2018-09-26T12:28:43.433Z,32.18
2018-09-26T12:29:43.437Z,33.17
2018-09-26T12:30:43.440Z,30.66
2018-09-26T12:31:43.445Z,30.00
2018-09-26T12:32:43.449Z,29.43
2018-09-26T12:33:43.453Z,27.21
2018-09-26T12:34:43.532Z,26.12
2018-09-26T12:35:43.461Z,28.23
2018-09-26T12:36:43.467Z,27.83
2018-09-26T12:37:43.469Z,28.14
2018-09-26T12:38:44.176Z,27.15
2018-09-26T12:39:43.476Z,27.15
2018-09-26T12:40:43.480Z,27.55
2018-09-26T12:41:43.485Z,28.89
2018-09-26T12:42:43.515Z,28.04
2018-09-26T12:43:43.490Z,27.06
2018-09-26T12:44:43.495Z,27.64
2018-09-26T12:45:43.496Z,29.50
2018-09-26T12:46:43.500Z,30.39
2018-09-26T12:47:43.506Z,27.81
2018-09-26T12:48:43.505Z,26.27
2018-09-26T12:49:43.510Z,25.99
2018-09-26T12:50:43.511Z,24.72
2018-09-26T12:51:43.515Z,25.56
2018-09-26T12:52:43.518Z,26.42